createdAt,value
2023-02-13T00:00:34.776Z,4.97
2023-02-13T00:03:10.447Z,4.97
2023-02-13T00:05:47.647Z,4.95
2023-02-13T00:08:21.994Z,5.68
2023-02-13T00:10:58.067Z,4.65
2023-02-13T00:13:33.354Z,4.90
2023-02-13T00:16:09.393Z,5.00
2023-02-13T00:18:44.603Z,4.97
2023-02-13T00:21:21.016Z,4.88
2023-02-13T00:23:55.412Z,5.35
2023-02-13T00:26:30.584Z,4.88
2023-02-13T00:29:04.930Z,4.40
2023-02-13T00:31:39.839Z,4.53
2023-02-13T00:34:15.518Z,5.00
2023-02-13T00:36:52.553Z,4.63
2023-02-13T00:39:27.855Z,5.28
2023-02-13T00:42:02.369Z,5.13
2023-02-13T00:44:37.195Z,4.40
2023-02-13T00:47:12.149Z,4.60
2023-02-13T00:49:47.416Z,4.72
2023-02-13T00:52:23.969Z,5.30
2023-02-13T00:54:59.168Z,4.70
2023-02-13T00:57:35.189Z,4.47
2023-02-13T01:00:10.764Z,4.32
2023-02-13T01:02:48.513Z,4.60
2023-02-13T01:05:23.727Z,4.80
2023-02-13T01:08:00.429Z,4.38
2023-02-13T01:10:34.840Z,4.38
2023-02-13T01:13:09.849Z,4.32
2023-02-13T01:15:45.518Z,4.10
2023-02-13T01:18:21.658Z,4.50
2023-02-13T01:21:03.379Z,4.45
2023-02-13T01:23:40.520Z,4.07
2023-02-13T01:26:17.160Z,4.63
2023-02-13T01:28:52.313Z,4.63
2023-02-13T01:31:26.889Z,4.35
2023-02-13T01:34:01.965Z,3.97
2023-02-13T01:36:37.381Z,4.85
2023-02-13T01:39:16.618Z,5.00
2023-02-13T01:41:51.305Z,5.00
2023-02-13T01:44:43.578Z,4.60
2023-02-13T01:47:19.937Z,4.43
2023-02-13T01:49:55.430Z,4.15
2023-02-13T01:52:30.657Z,4.45
2023-02-13T01:55:07.072Z,4.50
2023-02-13T01:57:43.341Z,4.32
2023-02-13T02:00:19.792Z,5.05
2023-02-13T02:02:56.045Z,3.88
2023-02-13T02:05:34.769Z,4.18
2023-02-13T02:08:12.366Z,3.88
2023-02-13T02:10:50.735Z,4.45
2023-02-13T02:13:26.158Z,4.05
2023-02-13T02:16:01.528Z,4.50
2023-02-13T02:18:36.602Z,4.05
2023-02-13T02:21:20.914Z,4.55
2023-02-13T02:24:14.431Z,4.57
2023-02-13T02:27:09.039Z,4.90
2023-02-13T02:29:57.002Z,4.60
2023-02-13T02:32:45.604Z,4.55
2023-02-13T02:35:26.660Z,4.70
2023-02-13T02:38:08.339Z,4.53
2023-02-13T02:40:52.836Z,4.53
2023-02-13T02:43:33.691Z,5.38
2023-02-13T02:46:15.166Z,4.30
2023-02-13T02:49:12.310Z,5.38
2023-02-13T02:51:53.334Z,4.20
2023-02-13T02:54:43.305Z,4.88
2023-02-13T02:57:20.120Z,4.70
2023-02-13T03:00:18.122Z,5.18
2023-02-13T03:03:09.143Z,3.70
2023-02-13T03:06:04.438Z,4.57
2023-02-13T03:08:55.417Z,4.35
2023-02-13T03:11:45.800Z,4.70
2023-02-13T03:14:22.751Z,4.72
2023-02-13T03:17:13.851Z,4.72
2023-02-13T03:20:14.458Z,4.43
2023-02-13T03:22:56.904Z,4.07
2023-02-13T03:25:39.008Z,4.35
2023-02-13T03:28:33.927Z,4.00
2023-02-13T03:31:13.728Z,4.10
2023-02-13T03:33:59.263Z,3.83
2023-02-13T03:36:55.739Z,4.15
2023-02-13T03:39:36.625Z,4.43
2023-02-13T03:42:12.801Z,3.80
2023-02-13T03:45:09.938Z,3.92
2023-02-13T03:47:45.735Z,4.18
2023-02-13T03:50:20.236Z,3.75
2023-02-13T03:52:57.663Z,3.88
2023-02-13T03:55:52.822Z,4.55
2023-02-13T03:58:45.417Z,3.85
2023-02-13T04:01:21.916Z,3.65
2023-02-13T04:04:01.979Z,3.55
2023-02-13T04:06:38.684Z,4.32
2023-02-13T04:09:13.662Z,4.53
2023-02-13T04:11:54.371Z,3.88
2023-02-13T04:14:30.499Z,4.15
2023-02-13T04:17:08.987Z,4.55
2023-02-13T04:19:44.688Z,3.92
2023-02-13T04:22:20.064Z,4.43
2023-02-13T04:24:54.447Z,4.22
2023-02-13T04:27:32.835Z,4.07
2023-02-13T04:30:07.993Z,3.70
2023-02-13T04:32:42.861Z,4.43
2023-02-13T04:35:18.387Z,3.72
2023-02-13T04:37:52.825Z,3.85
2023-02-13T04:40:27.777Z,3.67
2023-02-13T04:43:04.936Z,4.30
2023-02-13T04:45:39.403Z,4.07
2023-02-13T04:48:14.312Z,3.72
2023-02-13T04:50:49.758Z,4.03
2023-02-13T04:53:27.778Z,4.20
2023-02-13T04:56:02.085Z,3.95
2023-02-13T04:58:38.344Z,3.75
2023-02-13T05:01:17.932Z,3.60
2023-02-13T05:03:52.921Z,3.47
2023-02-13T05:06:27.951Z,3.75
2023-02-13T05:09:02.557Z,4.13
2023-02-13T05:11:37.442Z,4.20
2023-02-13T05:14:15.055Z,4.47
2023-02-13T05:16:49.577Z,3.78
2023-02-13T05:19:24.102Z,4.20
2023-02-13T05:22:27.609Z,3.42
2023-02-13T05:25:02.714Z,3.80
2023-02-13T05:27:37.167Z,3.75
2023-02-13T05:30:14.261Z,4.22
2023-02-13T05:32:49.053Z,3.92
2023-02-13T05:35:24.430Z,3.90
2023-02-13T05:37:59.342Z,3.90
2023-02-13T05:40:34.945Z,3.95
2023-02-13T05:43:09.727Z,5.47
2023-02-13T05:45:47.942Z,5.05
2023-02-13T05:48:22.336Z,3.35
2023-02-13T05:50:57.371Z,8.57
2023-02-13T05:53:36.848Z,5.28
2023-02-13T05:56:12.054Z,3.95
2023-02-13T05:58:46.789Z,4.13
2023-02-13T06:01:23.543Z,3.92
2023-02-13T06:03:59.389Z,3.53
2023-02-13T06:06:35.917Z,3.92
2023-02-13T06:09:10.929Z,3.90
2023-02-13T06:11:45.474Z,3.97
2023-02-13T06:14:20.589Z,4.65
2023-02-13T06:16:57.717Z,3.40
2023-02-13T06:19:32.205Z,4.10
2023-02-13T06:22:06.892Z,3.78
2023-02-13T06:24:42.457Z,3.83
2023-02-13T06:27:17.603Z,4.05
2023-02-13T06:29:52.339Z,4.03
2023-02-13T06:32:28.876Z,3.78
2023-02-13T06:35:05.580Z,4.07
2023-02-13T06:37:40.937Z,4.03
2023-02-13T06:40:16.579Z,3.50
2023-02-13T06:42:51.158Z,3.55
2023-02-13T06:45:26.109Z,3.70
2023-02-13T06:48:02.937Z,3.58
2023-02-13T06:50:37.552Z,3.70
2023-02-13T06:53:12.144Z,3.75
2023-02-13T06:55:47.711Z,3.90
2023-02-13T06:58:22.674Z,4.22
2023-02-13T07:00:57.722Z,4.57
2023-02-13T07:03:34.404Z,4.07
2023-02-13T07:06:09.379Z,3.92
2023-02-13T07:08:44.911Z,3.78
2023-02-13T07:11:23.410Z,4.30
2023-02-13T07:13:58.373Z,4.57
2023-02-13T07:16:35.874Z,4.05
2023-02-13T07:19:12.885Z,4.25
2023-02-13T07:21:47.308Z,4.25
2023-02-13T07:24:21.924Z,4.97
2023-02-13T07:26:57.162Z,3.90
2023-02-13T07:29:32.381Z,4.60
2023-02-13T07:32:06.977Z,4.28
2023-02-13T07:34:59.543Z,4.18
2023-02-13T07:37:39.423Z,4.03
2023-02-13T07:40:14.891Z,4.60
2023-02-13T07:42:50.173Z,3.97
2023-02-13T07:45:24.811Z,4.30
2023-02-13T07:48:01.438Z,4.10
2023-02-13T07:50:38.559Z,4.32
2023-02-13T07:53:12.961Z,4.07
2023-02-13T07:55:47.585Z,4.05
2023-02-13T07:58:23.203Z,4.03
2023-02-13T08:00:58.032Z,4.40
2023-02-13T08:03:32.486Z,3.97
2023-02-13T08:06:09.279Z,4.35
2023-02-13T08:08:44.012Z,4.40
2023-02-13T08:11:44.625Z,4.50
2023-02-13T08:14:19.503Z,3.95
2023-02-13T08:16:53.968Z,4.05
2023-02-13T08:19:28.813Z,4.00
2023-02-13T08:22:05.718Z,4.55
2023-02-13T08:24:40.207Z,4.40
2023-02-13T08:27:17.291Z,4.63
2023-02-13T08:29:54.680Z,4.88
2023-02-13T08:32:30.211Z,4.40
2023-02-13T08:35:04.543Z,5.00
2023-02-13T08:37:41.067Z,6.10
2023-02-13T08:40:16.257Z,4.55
2023-02-13T08:42:51.230Z,4.90
2023-02-13T08:45:26.315Z,4.60
2023-02-13T08:48:01.667Z,4.53
2023-02-13T08:50:37.483Z,4.72
2023-02-13T08:53:14.468Z,4.57
2023-02-13T08:55:48.885Z,5.05
2023-02-13T08:58:23.432Z,4.43
2023-02-13T09:00:59.045Z,4.80
2023-02-13T09:03:35.059Z,4.80
2023-02-13T09:06:09.606Z,4.30
2023-02-13T09:08:46.422Z,4.40
2023-02-13T09:11:25.090Z,4.43
2023-02-13T09:14:00.873Z,4.07
2023-02-13T09:16:36.898Z,4.93
2023-02-13T09:19:12.299Z,4.32
2023-02-13T09:21:47.554Z,4.25
2023-02-13T09:24:25.849Z,4.60
2023-02-13T09:27:00.511Z,4.00
2023-02-13T09:29:35.505Z,4.45
2023-02-13T09:32:11.190Z,4.50
2023-02-13T09:34:46.425Z,4.82
2023-02-13T09:37:20.938Z,4.60
2023-02-13T09:39:57.429Z,4.57
2023-02-13T09:42:33.767Z,5.00
2023-02-13T09:45:13.244Z,4.78
2023-02-13T09:47:49.501Z,5.18
2023-02-13T09:50:26.084Z,4.10
2023-02-13T09:53:01.492Z,4.93
2023-02-13T09:55:40.870Z,4.00
2023-02-13T09:58:20.947Z,4.18
2023-02-13T10:00:57.512Z,4.47
2023-02-13T10:03:35.419Z,4.22
2023-02-13T10:06:13.243Z,4.70
2023-02-13T10:08:54.842Z,4.40
2023-02-13T10:11:41.339Z,4.75
2023-02-13T10:14:19.383Z,4.47
2023-02-13T10:16:56.217Z,4.13
2023-02-13T10:19:40.034Z,4.50
2023-02-13T10:22:16.974Z,4.22
2023-02-13T10:24:53.702Z,3.80
2023-02-13T10:27:31.219Z,4.03
2023-02-13T10:30:14.129Z,4.22
2023-02-13T10:32:53.607Z,3.90
2023-02-13T10:35:32.214Z,3.25
2023-02-13T10:38:10.134Z,3.47
2023-02-13T10:40:45.567Z,3.63
2023-02-13T10:43:24.363Z,3.80
2023-02-13T10:46:07.520Z,3.83
2023-02-13T10:48:53.055Z,4.43
2023-02-13T10:51:32.543Z,4.63
2023-02-13T10:54:23.186Z,3.65
2023-02-13T10:57:03.189Z,4.15
2023-02-13T10:59:49.852Z,3.88
2023-02-13T11:02:27.937Z,3.95
2023-02-13T11:05:03.400Z,4.25
2023-02-13T11:07:39.621Z,3.97
2023-02-13T11:10:19.666Z,3.90
2023-02-13T11:12:54.538Z,4.22
2023-02-13T11:15:32.249Z,4.30
2023-02-13T11:18:09.567Z,4.60
2023-02-13T11:20:46.936Z,3.83
2023-02-13T11:23:33.034Z,3.42
2023-02-13T11:26:09.323Z,3.70
2023-02-13T11:28:45.394Z,3.90
2023-02-13T11:31:24.749Z,3.53
2023-02-13T11:33:59.582Z,3.88
2023-02-13T11:36:35.048Z,3.78
2023-02-13T11:39:10.801Z,4.30
2023-02-13T11:41:47.190Z,3.80
2023-02-13T11:44:27.001Z,3.90
2023-02-13T11:47:03.872Z,3.83
2023-02-13T11:49:41.514Z,4.65
2023-02-13T11:52:28.195Z,3.90
2023-02-13T11:55:05.364Z,4.13
2023-02-13T11:57:57.627Z,3.72
2023-02-13T12:00:39.255Z,3.83
2023-02-13T12:03:40.695Z,4.22
2023-02-13T12:06:28.627Z,3.97
2023-02-13T12:09:03.401Z,4.18
2023-02-13T12:11:48.280Z,4.40
2023-02-13T12:14:28.398Z,3.90
2023-02-13T12:17:31.401Z,3.80
2023-02-13T12:20:18.221Z,4.47
2023-02-13T12:23:05.062Z,4.50
2023-02-13T12:25:58.513Z,3.75
2023-02-13T12:28:53.285Z,4.13
2023-02-13T12:31:35.594Z,4.05
2023-02-13T12:34:25.759Z,4.15
2023-02-13T12:37:07.815Z,4.10
2023-02-13T12:39:51.259Z,4.05
2023-02-13T12:42:31.500Z,3.55
2023-02-13T12:45:19.748Z,3.90
2023-02-13T12:48:05.939Z,4.50
2023-02-13T12:50:45.304Z,4.75
2023-02-13T12:53:38.201Z,4.00
2023-02-13T12:56:27.653Z,4.78
2023-02-13T12:59:15.156Z,4.60
2023-02-13T13:02:03.004Z,4.53
2023-02-13T13:04:47.286Z,4.88
2023-02-13T13:07:30.930Z,5.25
2023-02-13T13:10:09.347Z,4.57
2023-02-13T13:12:57.505Z,3.92
2023-02-13T13:15:46.808Z,5.00
2023-02-13T13:19:01.934Z,4.88
2023-02-13T13:21:40.932Z,4.32
2023-02-13T13:24:35.800Z,4.45
2023-02-13T13:27:17.668Z,4.70
2023-02-13T13:30:00.465Z,4.78
2023-02-13T13:32:36.064Z,4.82
2023-02-13T13:35:10.597Z,4.55
2023-02-13T13:37:46.295Z,4.53
2023-02-13T13:40:30.305Z,4.80
2023-02-13T13:43:08.392Z,4.30
2023-02-13T13:45:48.218Z,4.45
2023-02-13T13:48:35.424Z,4.45
2023-02-13T13:51:11.936Z,5.55
2023-02-13T13:54:14.560Z,4.78
2023-02-13T13:57:06.661Z,4.53
2023-02-13T13:59:59.163Z,4.47
2023-02-13T14:02:43.746Z,4.72
2023-02-13T14:05:26.512Z,4.45
2023-02-13T14:08:02.160Z,4.47
2023-02-13T14:10:54.220Z,4.10
2023-02-13T14:13:35.660Z,4.13
2023-02-13T14:16:13.042Z,4.32
2023-02-13T14:18:52.537Z,4.00
2023-02-13T14:21:28.618Z,4.00
2023-02-13T14:24:05.732Z,4.43
2023-02-13T14:26:40.903Z,4.13
2023-02-13T14:29:32.276Z,4.32
2023-02-13T14:32:09.432Z,3.90
2023-02-13T14:34:47.103Z,4.18
2023-02-13T14:37:31.789Z,4.20
2023-02-13T14:40:16.919Z,3.83
2023-02-13T14:42:52.419Z,4.03
2023-02-13T14:45:29.566Z,3.90
2023-02-13T14:48:07.981Z,3.78
2023-02-13T14:50:50.982Z,4.15
2023-02-13T14:53:30.995Z,4.22
2023-02-13T14:56:10.890Z,3.63
2023-02-13T14:58:51.271Z,4.00
2023-02-13T15:01:35.307Z,3.53
2023-02-13T15:04:15.561Z,3.75
2023-02-13T15:06:53.620Z,3.88
2023-02-13T15:09:40.512Z,4.05
2023-02-13T15:12:28.898Z,3.80
2023-02-13T15:15:05.079Z,4.18
2023-02-13T15:17:42.201Z,4.30
2023-02-13T15:20:26.349Z,4.07
2023-02-13T15:23:03.083Z,3.75
2023-02-13T15:25:40.022Z,3.38
2023-02-13T15:28:29.281Z,3.33
2023-02-13T15:31:04.860Z,3.55
2023-02-13T15:33:39.987Z,3.80
2023-02-13T15:36:22.846Z,3.92
2023-02-13T15:39:09.892Z,3.83
2023-02-13T15:41:46.850Z,4.10
2023-02-13T15:44:25.821Z,3.83
2023-02-13T15:47:01.842Z,4.03
2023-02-13T15:49:40.273Z,4.45
2023-02-13T15:52:18.390Z,4.25
2023-02-13T15:54:56.111Z,4.03
2023-02-13T15:57:31.989Z,4.22
2023-02-13T16:00:09.370Z,3.85
2023-02-13T16:02:49.897Z,4.40
2023-02-13T16:05:39.921Z,4.55
2023-02-13T16:08:40.199Z,4.53
2023-02-13T16:11:27.288Z,4.53
2023-02-13T16:14:05.069Z,4.20
2023-02-13T16:16:43.507Z,4.38
2023-02-13T16:19:31.126Z,3.90
2023-02-13T16:22:20.902Z,3.97
2023-02-13T16:24:58.832Z,4.40
2023-02-13T16:27:37.936Z,4.32
2023-02-13T16:30:33.133Z,3.47
2023-02-13T16:33:27.622Z,3.50
2023-02-13T16:36:04.507Z,3.67
2023-02-13T16:38:41.333Z,3.45
2023-02-13T16:41:35.897Z,3.25
2023-02-13T16:44:28.606Z,3.10
2023-02-13T16:47:05.954Z,3.10
2023-02-13T16:49:42.063Z,3.05
2023-02-13T16:52:23.112Z,3.10
2023-02-13T16:55:01.866Z,2.50
2023-02-13T16:57:38.965Z,2.60
2023-02-13T17:00:25.675Z,2.85
2023-02-13T17:03:01.754Z,2.50
2023-02-13T17:05:37.857Z,2.20
2023-02-13T17:08:13.677Z,2.67
2023-02-13T17:11:07.324Z,2.67
2023-02-13T17:13:43.557Z,2.28
2023-02-13T17:16:25.886Z,2.00
2023-02-13T17:19:01.414Z,1.95
2023-02-13T17:21:37.934Z,2.30
2023-02-13T17:24:15.346Z,2.35
2023-02-13T17:26:51.540Z,2.50
2023-02-13T17:29:27.800Z,2.53
2023-02-13T17:32:05.420Z,2.50
2023-02-13T17:34:41.359Z,2.25
2023-02-13T17:37:22.636Z,2.70
2023-02-13T17:39:58.474Z,3.10
2023-02-13T17:42:35.010Z,3.00
2023-02-13T17:45:10.785Z,3.00
2023-02-13T17:47:49.152Z,2.80
2023-02-13T17:50:25.389Z,3.17
2023-02-13T17:53:01.435Z,2.80
2023-02-13T17:55:37.722Z,3.00
2023-02-13T17:58:14.986Z,3.13
2023-02-13T18:00:50.455Z,3.38
2023-02-13T18:03:27.784Z,3.17
2023-02-13T18:06:03.202Z,3.67
2023-02-13T18:08:39.437Z,3.55
2023-02-13T18:11:17.973Z,3.53
2023-02-13T18:13:54.170Z,3.72
2023-02-13T18:16:29.546Z,3.47
2023-02-13T18:19:08.385Z,3.50
2023-02-13T18:21:44.217Z,3.17
2023-02-13T18:24:20.410Z,3.60
2023-02-13T18:26:56.213Z,3.25
2023-02-13T18:29:33.371Z,3.50
2023-02-13T18:32:10.550Z,3.45
2023-02-13T18:34:48.321Z,3.55
2023-02-13T18:37:24.261Z,3.53
2023-02-13T18:40:00.425Z,3.15
2023-02-13T18:42:35.794Z,3.28
2023-02-13T18:45:12.585Z,3.33
2023-02-13T18:47:47.995Z,3.20
2023-02-13T18:50:26.077Z,3.58
2023-02-13T18:53:01.638Z,3.35
2023-02-13T18:55:36.875Z,3.38
2023-02-13T18:58:12.651Z,3.90
2023-02-13T19:00:49.624Z,3.50
2023-02-13T19:03:25.087Z,3.38
2023-02-13T19:06:02.146Z,3.60
2023-02-13T19:08:38.314Z,3.00
2023-02-13T19:11:16.121Z,3.55
2023-02-13T19:13:52.524Z,3.10
2023-02-13T19:16:29.000Z,3.60
2023-02-13T19:19:05.879Z,3.13
2023-02-13T19:21:45.355Z,3.47
2023-02-13T19:24:21.353Z,3.67
2023-02-13T19:26:56.552Z,3.40
2023-02-13T19:29:32.044Z,3.20
2023-02-13T19:32:08.508Z,3.45
2023-02-13T19:34:44.003Z,3.13
2023-02-13T19:37:21.138Z,3.65
2023-02-13T19:39:57.033Z,3.65
2023-02-13T19:42:34.307Z,3.60
2023-02-13T19:45:09.898Z,3.72
2023-02-13T19:47:45.715Z,3.25
2023-02-13T19:50:21.156Z,3.10
2023-02-13T19:52:59.500Z,3.60
2023-02-13T19:55:34.826Z,3.88
2023-02-13T19:58:09.989Z,3.45
2023-02-13T20:00:46.809Z,3.22
2023-02-13T20:03:23.830Z,4.20
2023-02-13T20:06:02.429Z,4.07
2023-02-13T20:08:41.917Z,4.10
2023-02-13T20:11:20.115Z,4.20
2023-02-13T20:14:02.392Z,4.30
2023-02-13T20:16:38.538Z,3.78
2023-02-13T20:19:17.208Z,4.07
2023-02-13T20:21:52.708Z,4.00
2023-02-13T20:24:32.428Z,3.80
2023-02-13T20:27:09.781Z,3.83
2023-02-13T20:29:46.609Z,3.42
2023-02-13T20:32:22.190Z,4.35
2023-02-13T20:34:59.998Z,3.65
2023-02-13T20:37:36.077Z,3.50
2023-02-13T20:40:14.447Z,4.05
2023-02-13T20:42:50.090Z,3.30
2023-02-13T20:45:26.146Z,3.20
2023-02-13T20:48:01.492Z,3.53
2023-02-13T20:50:37.311Z,3.60
2023-02-13T20:53:12.949Z,3.45
2023-02-13T20:55:50.816Z,3.08
2023-02-13T20:58:26.220Z,3.47
2023-02-13T21:01:02.079Z,3.47
2023-02-13T21:03:37.819Z,3.75
2023-02-13T21:06:16.150Z,3.60
2023-02-13T21:08:51.771Z,3.90
2023-02-13T21:11:30.039Z,4.05
2023-02-13T21:14:05.629Z,4.80
2023-02-13T21:16:43.973Z,4.50
2023-02-13T21:19:24.102Z,4.40
2023-02-13T21:22:12.670Z,3.88
2023-02-13T21:24:48.930Z,5.10
2023-02-13T21:27:27.223Z,3.70
2023-02-13T21:30:02.783Z,4.07
2023-02-13T21:32:37.883Z,4.30
2023-02-13T21:35:13.964Z,4.35
2023-02-13T21:37:51.000Z,3.75
2023-02-13T21:40:26.400Z,4.13
2023-02-13T21:43:03.586Z,3.67
2023-02-13T21:45:39.032Z,3.70
2023-02-13T21:48:15.204Z,3.20
2023-02-13T21:50:50.509Z,3.47
2023-02-13T21:53:26.713Z,3.83
2023-02-13T21:56:02.651Z,2.90
2023-02-13T21:58:41.737Z,2.95
2023-02-13T22:01:26.119Z,3.03
2023-02-13T22:04:03.464Z,3.92
2023-02-13T22:06:39.964Z,3.20
2023-02-13T22:09:19.242Z,2.92
2023-02-13T22:11:57.666Z,2.95
2023-02-13T22:14:34.876Z,3.05
2023-02-13T22:17:10.370Z,3.22
2023-02-13T22:19:46.665Z,3.28
2023-02-13T22:22:22.200Z,3.22
2023-02-13T22:24:58.112Z,4.03
2023-02-13T22:27:33.530Z,3.15
2023-02-13T22:30:12.309Z,3.58
2023-02-13T22:32:48.573Z,3.10
2023-02-13T22:35:23.930Z,3.70
2023-02-13T22:38:00.297Z,2.60
2023-02-13T22:40:37.905Z,3.33
2023-02-13T22:43:13.487Z,3.63
2023-02-13T22:45:50.819Z,3.05
2023-02-13T22:48:26.346Z,2.90
2023-02-13T22:51:07.725Z,2.72
2023-02-13T22:53:43.610Z,2.65
2023-02-13T22:56:19.574Z,2.67
2023-02-13T22:58:55.312Z,2.90
2023-02-13T23:01:36.695Z,2.53
2023-02-13T23:04:12.320Z,2.80
2023-02-13T23:06:47.752Z,2.50
2023-02-13T23:09:23.261Z,2.15
2023-02-13T23:12:16.445Z,2.05
2023-02-13T23:14:51.900Z,2.55
2023-02-13T23:17:45.341Z,2.67
2023-02-13T23:20:21.148Z,2.00
2023-02-13T23:22:57.738Z,2.33
2023-02-13T23:25:33.693Z,2.40
2023-02-13T23:28:12.532Z,2.10
2023-02-13T23:30:50.054Z,2.10
2023-02-13T23:33:28.806Z,1.77
2023-02-13T23:36:04.553Z,1.63
2023-02-13T23:38:40.031Z,1.80
2023-02-13T23:41:15.514Z,1.90
2023-02-13T23:43:53.756Z,2.25
2023-02-13T23:46:28.469Z,2.30
2023-02-13T23:49:07.427Z,2.40
2023-02-13T23:51:43.139Z,2.60
2023-02-13T23:54:20.973Z,2.25
2023-02-13T23:56:56.180Z,2.20
2023-02-13T23:59:31.741Z,2.30
